Time;durP1;ratioP1;P1;durP2;ratioP2;P2;SDS_P1;SDS_P2;PMS_P1;PMS_P2;Temp;Humidity;BMP_temperature;BMP_pressure;BME280_temperature;BME280_humidity;BME280_pressure;Samples;Min_cycle;Max_cycle;Signal;HPM_P1;HPM_P2
2023/08/04 00:01:38;;;;;;;;;;;;;;;;;;6309007;28;19928;-61
2023/08/04 00:04:39;;;;;;;;;;;;;;;;;;6303841;28;19934;-60
2023/08/04 00:07:42;;;;;;;;;;;;;;;;;;6305611;28;19923;-61
2023/08/04 00:10:43;;;;;;;;;;;;;;;;;;6306484;28;19923;-61
2023/08/04 00:13:43;;;;;;;;;;;;;;;;;;6285402;28;20375;-60
2023/08/04 00:16:43;;;;;;;;;;;;;;;;;;6301984;28;20279;-59
2023/08/04 00:19:44;;;;;;;;;;;;;;;;;;6307771;28;19935;-61
2023/08/04 00:22:45;;;;;;;;;;;;;;;;;;6306407;28;19928;-61
2023/08/04 00:25:45;;;;;;;;;;;;;;;;;;6307431;28;19943;-58
2023/08/04 00:28:46;;;;;;;;;;;;;;;;;;6305499;28;19930;-59
2023/08/04 00:31:46;;;;;;;;;;;;;;;;;;6304538;28;19919;-61
2023/08/04 00:34:47;;;;;;;;;;;;;;;;;;6303267;28;19931;-60
2023/08/04 00:37:48;;;;;;;;;;;;;;;;;;6302711;28;19924;-59
2023/08/04 00:40:48;;;;;;;;;;;;;;;;;;6305442;28;20398;-61
2023/08/04 00:43:49;;;;;;;;;;;;;;;;;;6294819;28;20302;-60
2023/08/04 00:46:50;;;;;;;;;;;;;;;;;;6304424;28;21196;-61
2023/08/04 00:49:51;;;;;;;;;;;;;;;;;;6302988;28;19928;-61
2023/08/04 00:52:51;;;;;;;;;;;;;;;;;;6295870;28;20272;-59
2023/08/04 00:55:52;;;;;;;;;;;;;;;;;;6300137;28;19931;-61
2023/08/04 00:58:52;;;;;;;;;;;;;;;;;;6301125;28;19924;-62
2023/08/04 01:01:53;;;;;;;;;;;;;;;;;;6296226;28;20594;-61
2023/08/04 01:04:54;;;;;;;;;;;;;;;;;;6295209;28;19920;-60
2023/08/04 01:08:02;;;;;;;;;;;;;;;;;;6295372;28;19924;-61
2023/08/04 01:11:08;;;;;;;;;;;;;;;;;;6293622;28;19931;-61
2023/08/04 01:14:09;;;;;;;;;;;;;;;;;;6292725;28;19931;-62
2023/08/04 01:17:22;;;;;;;;;;;;;;;;;;6307297;28;19920;-61
2023/08/04 01:20:23;;;;;;;;;;;;;;;;;;6302910;28;19993;-60
2023/08/04 01:23:24;;;;;;;;;;;;;;;;;;6296528;28;19942;-61
2023/08/04 01:26:24;;;;;;;;;;;;;;;;;;6295150;28;19928;-61
2023/08/04 01:29:25;;;;;;;;;;;;;;;;;;6295177;28;19977;-61
2023/08/04 01:32:26;;;;;;;;;;;;;;;;;;6296967;28;20983;-62
2023/08/04 01:35:28;;;;;;;;;;;;;;;;;;6301467;28;19930;-61
2023/08/04 01:38:28;;;;;;;;;;;;;;;;;;6296589;28;20122;-62
2023/08/04 01:41:29;;;;;;;;;;;;;;;;;;6295429;28;19936;-60
2023/08/04 01:44:29;;;;;;;;;;;;;;;;;;6295135;28;19974;-62
2023/08/04 01:47:30;;;;;;;;;;;;;;;;;;6305477;28;19977;-61
2023/08/04 01:50:30;;;;;;;;;;;;;;;;;;6292828;28;19942;-58
2023/08/04 01:53:31;;;;;;;;;;;;;;;;;;6293251;28;19925;-62
2023/08/04 01:56:31;;;;;;;;;;;;;;;;;;6303753;28;19924;-61
2023/08/04 01:59:32;;;;;;;;;;;;;;;;;;6298233;28;19920;-62
2023/08/04 02:02:32;;;;;;;;;;;;;;;;;;6294915;28;19927;-62
2023/08/04 02:05:33;;;;;;;;;;;;;;;;;;6289345;28;20326;-61
2023/08/04 02:08:34;;;;;;;;;;;;;;;;;;6292519;28;20297;-60
2023/08/04 02:11:34;;;;;;;;;;;;;;;;;;6295102;28;19924;-61
2023/08/04 02:14:35;;;;;;;;;;;;;;;;;;6300850;28;19946;-61
2023/08/04 02:17:36;;;;;;;;;;;;;;;;;;6293772;28;19925;-59
2023/08/04 02:20:36;;;;;;;;;;;;;;;;;;6305114;28;19919;-60
2023/08/04 02:23:37;;;;;;;;;;;;;;;;;;6291180;28;19931;-61
2023/08/04 02:26:37;;;;;;;;;;;;;;;;;;6305454;28;19921;-61
2023/08/04 02:29:38;;;;;;;;;;;;;;;;;;6292755;28;19920;-61
2023/08/04 02:32:38;;;;;;;;;;;;;;;;;;6271750;28;19971;-60
2023/08/04 02:35:39;;;;;;;;;;;;;;;;;;6294275;28;19920;-62
2023/08/04 02:38:40;;;;;;;;;;;;;;;;;;6299575;28;20263;-60
2023/08/04 02:41:40;;;;;;;;;;;;;;;;;;6300400;28;20335;-61
2023/08/04 02:44:40;;;;;;;;;;;;;;;;;;6294319;28;19920;-61
2023/08/04 02:47:41;;;;;;;;;;;;;;;;;;6300052;28;19928;-60
2023/08/04 02:50:41;;;;;;;;;;;;;;;;;;6309626;28;20332;-61
2023/08/04 02:53:43;;;;;;;;;;;;;;;;;;6299990;28;19927;-61
2023/08/04 02:56:43;;;;;;;;;;;;;;;;;;6294931;28;19924;-61
2023/08/04 02:59:44;;;;;;;;;;;;;;;;;;6298273;28;19924;-62
2023/08/04 03:02:44;;;;;;;;;;;;;;;;;;6300081;28;19924;-60
2023/08/04 03:05:46;;;;;;;;;;;;;;;;;;6297307;28;20047;-61
2023/08/04 03:08:46;;;;;;;;;;;;;;;;;;6297940;28;20010;-61
2023/08/04 03:11:47;;;;;;;;;;;;;;;;;;6298823;28;19932;-62
2023/08/04 03:14:47;;;;;;;;;;;;;;;;;;6296511;28;20416;-62
2023/08/04 03:17:49;;;;;;;;;;;;;;;;;;6297482;28;19924;-61
2023/08/04 03:20:50;;;;;;;;;;;;;;;;;;6302723;28;20031;-61
2023/08/04 03:23:50;;;;;;;;;;;;;;;;;;6314637;28;19924;-61
2023/08/04 03:26:51;;;;;;;;;;;;;;;;;;6297959;28;19931;-61
2023/08/04 03:29:52;;;;;;;;;;;;;;;;;;6298769;28;19965;-61
2023/08/04 03:32:52;;;;;;;;;;;;;;;;;;6296419;28;19921;-62
2023/08/04 03:35:53;;;;;;;;;;;;;;;;;;6298843;28;19924;-61
2023/08/04 03:38:53;;;;;;;;;;;;;;;;;;6296986;28;19927;-62
2023/08/04 03:41:54;;;;;;;;;;;;;;;;;;6296039;28;19947;-61
2023/08/04 03:44:54;;;;;;;;;;;;;;;;;;6295643;28;19943;-61
2023/08/04 03:47:55;;;;;;;;;;;;;;;;;;6298310;28;19920;-60
2023/08/04 03:50:55;;;;;;;;;;;;;;;;;;6297916;28;19924;-58
2023/08/04 03:53:56;;;;;;;;;;;;;;;;;;6297915;28;19969;-60
2023/08/04 03:56:56;;;;;;;;;;;;;;;;;;6298028;28;19924;-61
2023/08/04 03:59:57;;;;;;;;;;;;;;;;;;6298212;28;20360;-61
2023/08/04 04:02:57;;;;;;;;;;;;;;;;;;6309534;28;19942;-61
2023/08/04 04:05:58;;;;;;;;;;;;;;;;;;6297610;28;20295;-62
2023/08/04 04:08:58;;;;;;;;;;;;;;;;;;6295570;28;19931;-61
2023/08/04 04:11:59;;;;;;;;;;;;;;;;;;6297468;28;20295;-61
2023/08/04 04:14:59;;;;;;;;;;;;;;;;;;6299497;28;19924;-61
2023/08/04 04:18:00;;;;;;;;;;;;;;;;;;6297376;28;20349;-61
2023/08/04 04:21:00;;;;;;;;;;;;;;;;;;6297743;28;19931;-61
2023/08/04 04:24:01;;;;;;;;;;;;;;;;;;6303551;28;19930;-61
2023/08/04 04:27:01;;;;;;;;;;;;;;;;;;6299824;28;20278;-61
2023/08/04 04:30:02;;;;;;;;;;;;;;;;;;6297890;28;19924;-61
2023/08/04 04:33:03;;;;;;;;;;;;;;;;;;6295388;28;20855;-60
2023/08/04 04:36:03;;;;;;;;;;;;;;;;;;6296268;28;19920;-61
2023/08/04 04:39:04;;;;;;;;;;;;;;;;;;6293615;28;20003;-61
2023/08/04 04:42:05;;;;;;;;;;;;;;;;;;6294331;28;19920;-60
2023/08/04 04:45:05;;;;;;;;;;;;;;;;;;6294648;28;19928;-60
2023/08/04 04:48:06;;;;;;;;;;;;;;;;;;6295836;28;19920;-59
2023/08/04 04:51:07;;;;;;;;;;;;;;;;;;6296073;28;19928;-60
2023/08/04 04:54:07;;;;;;;;;;;;;;;;;;6296143;28;19920;-59
2023/08/04 04:57:08;;;;;;;;;;;;;;;;;;6296188;28;19920;-61
2023/08/04 05:00:09;;;;;;;;;;;;;;;;;;6294106;28;20327;-59
2023/08/04 05:03:10;;;;;;;;;;;;;;;;;;6299369;28;19935;-61
2023/08/04 05:06:11;;;;;;;;;;;;;;;;;;6299584;28;20465;-60
2023/08/04 05:09:11;;;;;;;;;;;;;;;;;;6297515;28;19928;-60
2023/08/04 05:12:12;;;;;;;;;;;;;;;;;;6298153;28;19924;-59
2023/08/04 05:15:12;;;;;;;;;;;;;;;;;;6297743;28;19924;-61
2023/08/04 05:18:13;;;;;;;;;;;;;;;;;;6293233;28;19920;-61
2023/08/04 05:21:14;;;;;;;;;;;;;;;;;;6294125;28;19931;-60
2023/08/04 05:24:14;;;;;;;;;;;;;;;;;;6295571;28;19924;-61
2023/08/04 05:27:15;;;;;;;;;;;;;;;;;;6295541;28;19931;-60
2023/08/04 05:30:16;;;;;;;;;;;;;;;;;;6295355;28;20375;-61
2023/08/04 05:33:16;;;;;;;;;;;;;;;;;;6291537;28;19947;-61
2023/08/04 05:36:17;;;;;;;;;;;;;;;;;;6292164;28;19931;-60
2023/08/04 05:39:17;;;;;;;;;;;;;;;;;;6294172;28;20462;-58
2023/08/04 05:42:18;;;;;;;;;;;;;;;;;;6294299;28;20051;-61
2023/08/04 05:45:18;;;;;;;;;;;;;;;;;;6294625;28;20294;-60
2023/08/04 05:48:19;;;;;;;;;;;;;;;;;;6294985;28;19928;-60
2023/08/04 05:51:19;;;;;;;;;;;;;;;;;;6294058;28;19924;-58
2023/08/04 05:54:20;;;;;;;;;;;;;;;;;;6294491;28;19924;-60
2023/08/04 05:57:20;;;;;;;;;;;;;;;;;;6294380;28;19949;-60
2023/08/04 06:00:21;;;;;;;;;;;;;;;;;;6293617;28;20014;-61
2023/08/04 06:03:21;;;;;;;;;;;;;;;;;;6296256;28;19924;-61
2023/08/04 06:06:22;;;;;;;;;;;;;;;;;;6297231;28;20392;-61
2023/08/04 06:09:23;;;;;;;;;;;;;;;;;;6294307;28;19924;-60
2023/08/04 06:12:23;;;;;;;;;;;;;;;;;;6295834;28;19968;-61
2023/08/04 06:15:24;;;;;;;;;;;;;;;;;;6298309;28;20307;-60
2023/08/04 06:18:25;;;;;;;;;;;;;;;;;;6300755;28;19924;-60
2023/08/04 06:21:25;;;;;;;;;;;;;;;;;;6300297;28;19920;-60
2023/08/04 06:24:26;;;;;;;;;;;;;;;;;;6298558;28;19925;-61
2023/08/04 06:27:27;;;;;;;;;;;;;;;;;;6299017;28;19920;-61
2023/08/04 06:30:28;;;;;;;;;;;;;;;;;;6298730;28;19974;-61
2023/08/04 06:33:28;;;;;;;;;;;;;;;;;;6298979;28;20003;-62
2023/08/04 06:36:29;;;;;;;;;;;;;;;;;;6306698;28;19934;-60
2023/08/04 06:39:29;;;;;;;;;;;;;;;;;;6306731;28;19920;-60
2023/08/04 06:42:30;;;;;;;;;;;;;;;;;;6311067;28;19926;-62
2023/08/04 06:45:30;;;;;;;;;;;;;;;;;;6310346;28;19920;-62
2023/08/04 06:48:31;;;;;;;;;;;;;;;;;;6310472;28;19924;-62
2023/08/04 06:51:31;;;;;;;;;;;;;;;;;;6306540;28;19924;-61
2023/08/04 06:54:32;;;;;;;;;;;;;;;;;;6317988;28;19992;-61
2023/08/04 06:57:32;;;;;;;;;;;;;;;;;;6309010;28;20624;-61
2023/08/04 07:00:33;;;;;;;;;;;;;;;;;;6298978;28;20297;-61
2023/08/04 07:03:33;;;;;;;;;;;;;;;;;;6298535;28;19920;-61
2023/08/04 07:06:34;;;;;;;;;;;;;;;;;;6299174;28;19973;-60
2023/08/04 07:09:34;;;;;;;;;;;;;;;;;;6314685;28;19920;-62
2023/08/04 07:12:35;;;;;;;;;;;;;;;;;;6306611;28;20371;-61
2023/08/04 07:15:35;;;;;;;;;;;;;;;;;;6279369;28;19950;-61
2023/08/04 07:18:36;;;;;;;;;;;;;;;;;;6297243;28;20006;-60
2023/08/04 07:21:37;;;;;;;;;;;;;;;;;;6306859;28;20290;-61
2023/08/04 07:24:38;;;;;;;;;;;;;;;;;;6298410;28;19924;-61
2023/08/04 07:27:38;;;;;;;;;;;;;;;;;;6297434;28;19928;-61
2023/08/04 07:30:39;;;;;;;;;;;;;;;;;;6296168;28;19929;-62
2023/08/04 07:33:39;;;;;;;;;;;;;;;;;;6296198;28;19931;-61
2023/08/04 07:36:40;;;;;;;;;;;;;;;;;;6297608;28;20027;-62
2023/08/04 07:39:40;;;;;;;;;;;;;;;;;;6298018;28;19920;-61
2023/08/04 07:42:42;;;;;;;;;;;;;;;;;;6297465;28;20294;-60
2023/08/04 07:45:42;;;;;;;;;;;;;;;;;;6297749;28;19962;-61
2023/08/04 07:48:43;;;;;;;;;;;;;;;;;;6297668;28;20030;-60
2023/08/04 07:51:44;;;;;;;;;;;;;;;;;;6299397;28;19920;-59
2023/08/04 07:54:44;;;;;;;;;;;;;;;;;;6294142;28;19939;-60
2023/08/04 07:57:45;;;;;;;;;;;;;;;;;;6296537;28;19927;-59
2023/08/04 08:00:45;;;;;;;;;;;;;;;;;;6297467;28;20472;-61
2023/08/04 08:03:46;;;;;;;;;;;;;;;;;;6293446;28;19938;-61
2023/08/04 08:06:46;;;;;;;;;;;;;;;;;;6295458;28;20484;-58
2023/08/04 08:09:47;;;;;;;;;;;;;;;;;;6296054;28;19924;-61
2023/08/04 08:12:47;;;;;;;;;;;;;;;;;;6296106;28;19981;-60
2023/08/04 08:15:48;;;;;;;;;;;;;;;;;;6298162;28;20732;-61
2023/08/04 08:18:48;;;;;;;;;;;;;;;;;;6296230;28;19965;-61
2023/08/04 08:21:49;;;;;;;;;;;;;;;;;;6296768;28;19931;-61
2023/08/04 08:24:53;;;;;;;;;;;;;;;;;;6296432;28;19928;-61
2023/08/04 08:27:53;;;;;;;;;;;;;;;;;;6298037;28;19982;-62
2023/08/04 08:30:54;;;;;;;;;;;;;;;;;;6297151;28;19924;-61
2023/08/04 08:33:54;;;;;;;;;;;;;;;;;;6256331;28;1198688;-61
2023/08/04 08:36:55;;;;;;;;;;;;;;;;;;6297416;28;19960;-60
2023/08/04 08:39:55;;;;;;;;;;;;;;;;;;6298529;28;20624;-61
2023/08/04 08:42:57;;;;;;;;;;;;;;;;;;6295999;28;19931;-59
2023/08/04 08:45:58;;;;;;;;;;;;;;;;;;6298060;28;19920;-62
2023/08/04 08:48:58;;;;;;;;;;;;;;;;;;6297106;28;19934;-61
2023/08/04 08:51:59;;;;;;;;;;;;;;;;;;6296029;28;21119;-61
2023/08/04 08:54:59;;;;;;;;;;;;;;;;;;6295110;28;20348;-60
2023/08/04 08:58:00;;;;;;;;;;;;;;;;;;6298452;28;19924;-61
2023/08/04 09:01:01;;;;;;;;;;;;;;;;;;6299005;28;20329;-59
2023/08/04 09:04:02;;;;;;;;;;;;;;;;;;6296576;28;19924;-60
2023/08/04 09:07:02;;;;;;;;;;;;;;;;;;6297580;28;19924;-60
2023/08/04 09:10:03;;;;;;;;;;;;;;;;;;6296794;28;19928;-61
2023/08/04 09:13:07;;;;;;;;;;;;;;;;;;6295487;28;19927;-62
2023/08/04 09:16:12;;;;;;;;;;;;;;;;;;6297627;28;20429;-61
2023/08/04 09:19:14;;;;;;;;;;;;;;;;;;6297488;28;19935;-60
2023/08/04 09:22:15;;;;;;;;;;;;;;;;;;6296866;28;20404;-61
2023/08/04 09:25:15;;;;;;;;;;;;;;;;;;6295499;28;19924;-59
2023/08/04 09:28:16;;;;;;;;;;;;;;;;;;6296506;28;19935;-62
2023/08/04 09:31:17;;;;;;;;;;;;;;;;;;6296111;28;19920;-61
2023/08/04 09:34:18;;;;;;;;;;;;;;;;;;6295233;28;19959;-62
2023/08/04 09:37:18;;;;;;;;;;;;;;;;;;6295858;28;19926;-61
2023/08/04 09:40:20;;;;;;;;;;;;;;;;;;6294962;28;19924;-62
2023/08/04 09:43:20;;;;;;;;;;;;;;;;;;6294452;28;20386;-61
2023/08/04 09:46:21;;;;;;;;;;;;;;;;;;6296103;28;19920;-61
2023/08/04 09:49:22;;;;;;;;;;;;;;;;;;6294087;28;19925;-60
2023/08/04 09:52:23;;;;;;;;;;;;;;;;;;6292199;28;19924;-62
2023/08/04 09:55:24;;;;;;;;;;;;;;;;;;6296176;28;19924;-61
2023/08/04 09:58:25;;;;;;;;;;;;;;;;;;6296667;28;20350;-61
2023/08/04 10:01:25;;;;;;;;;;;;;;;;;;6296458;28;19976;-60
2023/08/04 10:04:26;;;;;;;;;;;;;;;;;;6297729;28;19924;-62
2023/08/04 10:07:28;;;;;;;;;;;;;;;;;;6295769;28;19938;-62
2023/08/04 10:10:28;;;;;;;;;;;;;;;;;;6298830;28;19924;-61
2023/08/04 10:13:31;;;;;;;;;;;;;;;;;;6293922;28;20692;-61
2023/08/04 10:16:33;;;;;;;;;;;;;;;;;;6293441;28;19924;-62
2023/08/04 10:19:34;;;;;;;;;;;;;;;;;;6294062;28;20264;-61
2023/08/04 10:22:35;;;;;;;;;;;;;;;;;;6294327;28;19931;-61
2023/08/04 10:25:35;;;;;;;;;;;;;;;;;;6296028;28;20902;-61
2023/08/04 10:28:56;;;;;;;;;;;;;;;;;;6294145;28;19924;-61
2023/08/04 10:31:57;;;;;;;;;;;;;;;;;;6298217;28;20267;-61
2023/08/04 10:34:57;;;;;;;;;;;;;;;;;;6295872;28;19927;-61
2023/08/04 10:37:59;;;;;;;;;;;;;;;;;;6294844;28;19920;-61
2023/08/04 10:41:06;;;;;;;;;;;;;;;;;;6295202;28;20171;-61
2023/08/04 10:44:08;;;;;;;;;;;;;;;;;;6295586;28;19927;-61
2023/08/04 10:47:10;;;;;;;;;;;;;;;;;;6294999;28;20303;-61
2023/08/04 10:50:10;;;;;;;;;;;;;;;;;;6297274;28;19931;-60
2023/08/04 10:53:11;;;;;;;;;;;;;;;;;;6294477;28;19924;-62
2023/08/04 10:56:12;;;;;;;;;;;;;;;;;;6295216;28;19924;-61
2023/08/04 10:59:12;;;;;;;;;;;;;;;;;;6293197;28;19935;-61
2023/08/04 11:02:15;;;;;;;;;;;;;;;;;;6312123;28;20286;-62
2023/08/04 11:05:16;;;;;;;;;;;;;;;;;;6317486;28;19920;-61
2023/08/04 11:08:18;;;;;;;;;;;;;;;;;;6310542;28;20359;-61
2023/08/04 11:11:18;;;;;;;;;;;;;;;;;;6301892;28;19935;-61
2023/08/04 11:14:19;;;;;;;;;;;;;;;;;;6299136;28;20779;-62
2023/08/04 11:17:20;;;;;;;;;;;;;;;;;;6300885;28;19931;-58
2023/08/04 11:20:21;;;;;;;;;;;;;;;;;;6298191;28;19931;-60
2023/08/04 11:23:28;;;;;;;;;;;;;;;;;;6297967;28;20347;-60
2023/08/04 11:26:29;;;;;;;;;;;;;;;;;;6298853;28;19920;-57
2023/08/04 11:29:29;;;;;;;;;;;;;;;;;;6298715;28;20033;-60
2023/08/04 11:32:30;;;;;;;;;;;;;;;;;;6300383;28;19969;-62
2023/08/04 11:35:32;;;;;;;;;;;;;;;;;;6297304;28;19924;-61
2023/08/04 11:38:33;;;;;;;;;;;;;;;;;;6300016;28;19920;-62
2023/08/04 11:41:33;;;;;;;;;;;;;;;;;;6297312;28;19974;-61
2023/08/04 11:44:34;;;;;;;;;;;;;;;;;;6295939;28;20355;-63
2023/08/04 11:47:35;;;;;;;;;;;;;;;;;;6316860;28;19920;-61
2023/08/04 11:50:35;;;;;;;;;;;;;;;;;;6308963;28;19930;-61
2023/08/04 11:53:36;;;;;;;;;;;;;;;;;;6296712;28;20798;-62
2023/08/04 11:56:37;;;;;;;;;;;;;;;;;;6300007;28;20294;-62
2023/08/04 11:59:45;;;;;;;;;;;;;;;;;;6297584;28;19924;-60
2023/08/04 12:02:56;;;;;;;;;;;;;;;;;;6296618;28;19936;-59
2023/08/04 12:05:56;;;;;;;;;;;;;;;;;;6292916;28;20646;-61
2023/08/04 12:08:59;;;;;;;;;;;;;;;;;;6306176;28;19927;-62
2023/08/04 12:11:59;;;;;;;;;;;;;;;;;;6309105;28;19956;-61
2023/08/04 12:15:00;;;;;;;;;;;;;;;;;;6307888;28;19964;-61
2023/08/04 12:18:00;;;;;;;;;;;;;;;;;;6304428;28;21271;-59
2023/08/04 12:21:01;;;;;;;;;;;;;;;;;;6303331;28;20302;-60
2023/08/04 12:24:02;;;;;;;;;;;;;;;;;;6305566;28;19928;-62
2023/08/04 12:27:03;;;;;;;;;;;;;;;;;;6303662;28;19943;-62
2023/08/04 12:30:05;;;;;;;;;;;;;;;;;;6306574;28;19924;-61
2023/08/04 12:33:06;;;;;;;;;;;;;;;;;;6307460;28;19928;-61
2023/08/04 12:36:06;;;;;;;;;;;;;;;;;;6307827;28;19939;-62
2023/08/04 12:39:10;;;;;;;;;;;;;;;;;;6310302;28;20409;-61
2023/08/04 12:42:11;;;;;;;;;;;;;;;;;;6307597;28;19971;-62
2023/08/04 12:45:11;;;;;;;;;;;;;;;;;;6306685;28;20008;-62
2023/08/04 12:48:12;;;;;;;;;;;;;;;;;;6304813;28;20382;-61
2023/08/04 12:51:12;;;;;;;;;;;;;;;;;;6307814;28;21151;-61
2023/08/04 12:54:13;;;;;;;;;;;;;;;;;;6306128;28;19928;-62
2023/08/04 12:57:13;;;;;;;;;;;;;;;;;;6304285;28;19935;-62
2023/08/04 13:00:14;;;;;;;;;;;;;;;;;;6309260;28;19923;-61
2023/08/04 13:03:15;;;;;;;;;;;;;;;;;;6310528;28;19927;-61
2023/08/04 13:06:15;;;;;;;;;;;;;;;;;;6304637;28;19924;-60
2023/08/04 13:09:17;;;;;;;;;;;;;;;;;;6303514;28;19927;-61
2023/08/04 13:12:17;;;;;;;;;;;;;;;;;;6301701;28;19924;-61
2023/08/04 13:15:18;;;;;;;;;;;;;;;;;;6303278;28;20280;-62
2023/08/04 13:18:19;;;;;;;;;;;;;;;;;;6305407;28;20018;-61
2023/08/04 13:21:20;;;;;;;;;;;;;;;;;;6308428;28;19987;-61
2023/08/04 13:24:20;;;;;;;;;;;;;;;;;;6306606;28;19978;-60
2023/08/04 13:27:21;;;;;;;;;;;;;;;;;;6301542;28;19924;-62
2023/08/04 13:30:21;;;;;;;;;;;;;;;;;;6309952;28;19928;-60
2023/08/04 13:33:22;;;;;;;;;;;;;;;;;;6308865;28;19930;-61
2023/08/04 13:36:22;;;;;;;;;;;;;;;;;;6310378;28;20311;-61
2023/08/04 13:39:23;;;;;;;;;;;;;;;;;;6304369;28;19931;-60
2023/08/04 13:42:23;;;;;;;;;;;;;;;;;;6294638;28;19924;-61
2023/08/04 13:45:25;;;;;;;;;;;;;;;;;;6308529;28;19927;-61
2023/08/04 13:48:25;;;;;;;;;;;;;;;;;;6303255;28;19928;-61
2023/08/04 13:51:26;;;;;;;;;;;;;;;;;;6281921;28;19971;-62
2023/08/04 13:54:26;;;;;;;;;;;;;;;;;;6301538;28;19931;-62
2023/08/04 13:57:27;;;;;;;;;;;;;;;;;;6302964;28;19931;-62
2023/08/04 14:00:27;;;;;;;;;;;;;;;;;;6305707;28;19927;-62
2023/08/04 14:03:28;;;;;;;;;;;;;;;;;;6306336;28;19961;-62
2023/08/04 14:06:29;;;;;;;;;;;;;;;;;;6300735;28;20469;-63
2023/08/04 14:09:37;;;;;;;;;;;;;;;;;;6303118;28;20357;-62
2023/08/04 14:12:37;;;;;;;;;;;;;;;;;;6308000;28;19923;-61
2023/08/04 14:15:38;;;;;;;;;;;;;;;;;;6304293;28;20046;-62
2023/08/04 14:18:40;;;;;;;;;;;;;;;;;;6303465;28;21480;-61
2023/08/04 14:21:41;;;;;;;;;;;;;;;;;;6306542;28;20843;-61
2023/08/04 14:24:41;;;;;;;;;;;;;;;;;;6304120;28;19934;-62
2023/08/04 14:27:42;;;;;;;;;;;;;;;;;;6300082;28;20633;-61
2023/08/04 14:30:43;;;;;;;;;;;;;;;;;;6305918;28;20703;-62
2023/08/04 14:33:43;;;;;;;;;;;;;;;;;;6305469;28;19924;-63
2023/08/04 14:36:44;;;;;;;;;;;;;;;;;;6305767;28;20472;-60
2023/08/04 14:39:44;;;;;;;;;;;;;;;;;;6290238;28;19980;-62
2023/08/04 14:42:45;;;;;;;;;;;;;;;;;;6308761;28;20626;-61
2023/08/04 14:45:45;;;;;;;;;;;;;;;;;;6308293;28;19951;-62
2023/08/04 14:48:46;;;;;;;;;;;;;;;;;;6317759;28;19923;-62
2023/08/04 14:51:46;;;;;;;;;;;;;;;;;;6321827;28;20324;-63
2023/08/04 14:54:49;;;;;;;;;;;;;;;;;;6325270;28;19927;-59
2023/08/04 14:57:49;;;;;;;;;;;;;;;;;;6320412;28;20999;-59
2023/08/04 15:00:50;;;;;;;;;;;;;;;;;;6323299;28;19928;-63
2023/08/04 15:03:50;;;;;;;;;;;;;;;;;;6323112;28;20263;-63
2023/08/04 15:06:51;;;;;;;;;;;;;;;;;;6321856;28;19919;-64
2023/08/04 15:09:51;;;;;;;;;;;;;;;;;;6324269;28;19919;-63
2023/08/04 15:12:52;;;;;;;;;;;;;;;;;;6318255;28;19920;-64
2023/08/04 15:15:52;;;;;;;;;;;;;;;;;;6314073;28;19928;-62
2023/08/04 15:18:53;;;;;;;;;;;;;;;;;;6319526;28;21190;-56
2023/08/04 15:21:54;;;;;;;;;;;;;;;;;;6317772;28;20286;-61
2023/08/04 15:24:54;;;;;;;;;;;;;;;;;;6318182;28;19924;-59
2023/08/04 15:27:55;;;;;;;;;;;;;;;;;;6313787;28;19927;-63
2023/08/04 15:31:02;;;;;;;;;;;;;;;;;;6320356;28;19924;-61
2023/08/04 15:34:05;;;;;;;;;;;;;;;;;;6318712;28;19969;-63
2023/08/04 15:37:05;;;;;;;;;;;;;;;;;;6319526;28;19928;-64
2023/08/04 15:40:07;;;;;;;;;;;;;;;;;;6301000;28;19931;-63
2023/08/04 15:43:08;;;;;;;;;;;;;;;;;;6323957;28;20558;-63
2023/08/04 15:46:08;;;;;;;;;;;;;;;;;;6318978;28;19978;-64
2023/08/04 15:49:09;;;;;;;;;;;;;;;;;;6317088;28;19927;-64
2023/08/04 15:52:09;;;;;;;;;;;;;;;;;;6312148;28;20000;-60
2023/08/04 15:55:10;;;;;;;;;;;;;;;;;;6318371;28;19924;-59
2023/08/04 15:58:10;;;;;;;;;;;;;;;;;;6302925;28;19931;-60
2023/08/04 16:01:11;;;;;;;;;;;;;;;;;;6296333;28;19921;-60
2023/08/04 16:04:12;;;;;;;;;;;;;;;;;;6295272;28;19928;-60
2023/08/04 16:07:12;;;;;;;;;;;;;;;;;;6299702;28;19920;-60
2023/08/04 16:10:13;;;;;;;;;;;;;;;;;;6293138;28;19919;-59
2023/08/04 16:13:13;;;;;;;;;;;;;;;;;;6295291;28;19925;-60
2023/08/04 16:16:14;;;;;;;;;;;;;;;;;;6295323;28;19924;-60
2023/08/04 16:19:14;;;;;;;;;;;;;;;;;;6306557;28;20317;-59
2023/08/04 16:22:15;;;;;;;;;;;;;;;;;;6294654;28;19931;-61
2023/08/04 16:25:15;;;;;;;;;;;;;;;;;;6304847;28;20371;-60
2023/08/04 16:28:16;;;;;;;;;;;;;;;;;;6297727;28;19919;-60
2023/08/04 16:31:16;;;;;;;;;;;;;;;;;;6297465;28;19920;-60
2023/08/04 16:34:17;;;;;;;;;;;;;;;;;;6307877;28;19920;-60
2023/08/04 16:37:17;;;;;;;;;;;;;;;;;;6300094;28;19940;-59
2023/08/04 16:40:19;;;;;;;;;;;;;;;;;;6296859;28;19920;-60
2023/08/04 16:43:19;;;;;;;;;;;;;;;;;;6297035;28;19924;-60
2023/08/04 16:46:20;;;;;;;;;;;;;;;;;;6294941;28;20675;-59
2023/08/04 16:49:21;;;;;;;;;;;;;;;;;;6305223;28;19928;-60
2023/08/04 16:52:22;;;;;;;;;;;;;;;;;;6307653;28;19924;-59
2023/08/04 16:55:23;;;;;;;;;;;;;;;;;;6296678;28;20385;-60
2023/08/04 16:58:23;;;;;;;;;;;;;;;;;;6295562;28;19920;-60
2023/08/04 17:01:24;;;;;;;;;;;;;;;;;;6296566;28;19999;-60
2023/08/04 17:04:24;;;;;;;;;;;;;;;;;;6295958;28;19929;-60
2023/08/04 17:07:25;;;;;;;;;;;;;;;;;;6295282;28;20409;-59
2023/08/04 17:10:26;;;;;;;;;;;;;;;;;;6293563;28;19921;-59
2023/08/04 17:13:26;;;;;;;;;;;;;;;;;;6295164;28;20483;-59
2023/08/04 17:16:27;;;;;;;;;;;;;;;;;;6294827;28;19924;-60
2023/08/04 17:19:27;;;;;;;;;;;;;;;;;;6294437;28;20328;-59
2023/08/04 17:22:28;;;;;;;;;;;;;;;;;;6295952;28;19924;-60
2023/08/04 17:25:30;;;;;;;;;;;;;;;;;;6295838;28;22368;-60
2023/08/04 17:28:31;;;;;;;;;;;;;;;;;;6293181;28;19924;-59
2023/08/04 17:31:31;;;;;;;;;;;;;;;;;;6303788;28;20589;-59
2023/08/04 17:34:32;;;;;;;;;;;;;;;;;;6307753;28;20379;-59
2023/08/04 17:37:33;;;;;;;;;;;;;;;;;;6308758;28;20351;-60
2023/08/04 17:40:33;;;;;;;;;;;;;;;;;;6306228;28;19931;-60
2023/08/04 17:43:34;;;;;;;;;;;;;;;;;;6302620;28;19925;-59
2023/08/04 17:46:34;;;;;;;;;;;;;;;;;;6307323;28;19920;-59
2023/08/04 17:49:35;;;;;;;;;;;;;;;;;;6309060;28;19993;-60
2023/08/04 17:52:35;;;;;;;;;;;;;;;;;;6309439;28;20325;-60
2023/08/04 17:55:36;;;;;;;;;;;;;;;;;;6305911;28;20398;-60
2023/08/04 17:58:36;;;;;;;;;;;;;;;;;;6314256;28;19994;-59
2023/08/04 18:01:37;;;;;;;;;;;;;;;;;;6306408;28;19943;-58
2023/08/04 18:04:37;;;;;;;;;;;;;;;;;;6301905;28;20370;-60
2023/08/04 18:07:38;;;;;;;;;;;;;;;;;;6315391;28;20705;-60
2023/08/04 18:10:43;;;;;;;;;;;;;;;;;;6304020;28;20277;-59
2023/08/04 18:13:43;;;;;;;;;;;;;;;;;;6300476;28;19924;-60
2023/08/04 18:16:45;;;;;;;;;;;;;;;;;;6301950;28;20691;-60
2023/08/04 18:19:45;;;;;;;;;;;;;;;;;;6300587;28;19935;-59
2023/08/04 18:22:46;;;;;;;;;;;;;;;;;;6310009;28;19928;-59
2023/08/04 18:25:47;;;;;;;;;;;;;;;;;;6300646;28;19955;-60
2023/08/04 18:28:47;;;;;;;;;;;;;;;;;;6298204;28;20498;-60
2023/08/04 18:31:47;;;;;;;;;;;;;;;;;;6301163;28;19943;-60
2023/08/04 18:34:48;;;;;;;;;;;;;;;;;;6299255;28;19977;-60
2023/08/04 18:37:49;;;;;;;;;;;;;;;;;;6282062;28;20379;-60
2023/08/04 18:40:52;;;;;;;;;;;;;;;;;;6308874;28;20386;-59
2023/08/04 18:43:53;;;;;;;;;;;;;;;;;;6301380;28;19931;-60
2023/08/04 18:46:53;;;;;;;;;;;;;;;;;;6296340;28;19977;-57
2023/08/04 18:49:54;;;;;;;;;;;;;;;;;;6311926;28;19935;-58
2023/08/04 18:52:54;;;;;;;;;;;;;;;;;;6318504;28;19935;-59
2023/08/04 18:55:54;;;;;;;;;;;;;;;;;;6317498;28;19931;-60
2023/08/04 18:58:55;;;;;;;;;;;;;;;;;;6316369;28;19930;-61
2023/08/04 19:01:56;;;;;;;;;;;;;;;;;;6315627;28;19931;-60
2023/08/04 19:04:56;;;;;;;;;;;;;;;;;;6301740;28;19928;-60
2023/08/04 19:07:56;;;;;;;;;;;;;;;;;;6298757;28;19928;-60
2023/08/04 19:10:57;;;;;;;;;;;;;;;;;;6303033;28;19935;-59
2023/08/04 19:13:57;;;;;;;;;;;;;;;;;;6305995;28;19927;-59
2023/08/04 19:17:03;;;;;;;;;;;;;;;;;;6313321;28;19953;-59
2023/08/04 19:20:03;;;;;;;;;;;;;;;;;;6317152;28;19923;-58
2023/08/04 19:23:04;;;;;;;;;;;;;;;;;;6317511;28;19924;-58
2023/08/04 19:26:04;;;;;;;;;;;;;;;;;;6319265;28;19927;-59
2023/08/04 19:29:05;;;;;;;;;;;;;;;;;;6317007;28;19985;-60
2023/08/04 19:32:06;;;;;;;;;;;;;;;;;;6319290;28;19920;-61
2023/08/04 19:35:07;;;;;;;;;;;;;;;;;;6321149;28;19966;-60
2023/08/04 19:38:08;;;;;;;;;;;;;;;;;;6315760;28;19923;-59
2023/08/04 19:41:08;;;;;;;;;;;;;;;;;;6316873;28;19928;-60
2023/08/04 19:44:08;;;;;;;;;;;;;;;;;;6320191;28;19928;-57
2023/08/04 19:47:09;;;;;;;;;;;;;;;;;;6311324;28;20313;-60
2023/08/04 19:50:10;;;;;;;;;;;;;;;;;;6318827;28;20653;-57
2023/08/04 19:53:10;;;;;;;;;;;;;;;;;;6319757;28;19931;-59
2023/08/04 19:56:11;;;;;;;;;;;;;;;;;;6318726;28;19935;-59
2023/08/04 19:59:12;;;;;;;;;;;;;;;;;;6315923;28;19927;-59
2023/08/04 20:02:12;;;;;;;;;;;;;;;;;;6317413;28;19928;-63
2023/08/04 20:05:13;;;;;;;;;;;;;;;;;;6317726;28;19928;-59
2023/08/04 20:08:13;;;;;;;;;;;;;;;;;;6312745;28;19990;-58
2023/08/04 20:11:14;;;;;;;;;;;;;;;;;;6317214;28;20640;-62
2023/08/04 20:14:14;;;;;;;;;;;;;;;;;;6319826;28;19924;-59
2023/08/04 20:17:15;;;;;;;;;;;;;;;;;;6317091;28;19927;-57
2023/08/04 20:20:15;;;;;;;;;;;;;;;;;;6319191;28;20456;-57
2023/08/04 20:23:16;;;;;;;;;;;;;;;;;;6315802;28;19928;-59
2023/08/04 20:26:17;;;;;;;;;;;;;;;;;;6317978;28;20012;-62
2023/08/04 20:29:17;;;;;;;;;;;;;;;;;;6316574;28;19924;-58
2023/08/04 20:32:18;;;;;;;;;;;;;;;;;;6316025;28;19931;-59
2023/08/04 20:35:19;;;;;;;;;;;;;;;;;;6320350;28;19924;-61